Time;durP1;ratioP1;P1;durP2;ratioP2;P2;SDS_P1;SDS_P2;PMS_P1;PMS_P2;Temp;Humidity;BMP_temperature;BMP_pressure;BME280_temperature;BME280_humidity;BME280_pressure;Samples;Min_cycle;Max_cycle;Signal;HPM_P1;HPM_P2
2021/01/09 00:00:11;;;;;;;144.50;63.03;;;;;;;0.76;92.33;100044.52;1649579;85;24365;-63
2021/01/09 00:02:36;;;;;;;136.03;60.67;;;;;;;0.76;92.38;100043.22;1640083;85;21252;-63
2021/01/09 00:05:03;;;;;;;128.53;55.30;;;;;;;0.84;91.90;100037.07;1651936;85;22587;-62
2021/01/09 00:07:31;;;;;;;130.52;57.85;;;;;;;0.85;91.80;100042.65;1651983;85;21566;-63
2021/01/09 00:10:00;;;;;;;129.25;55.78;;;;;;;0.84;91.82;100038.37;1650895;85;21255;-64
2021/01/09 00:12:26;;;;;;;136.75;58.25;;;;;;;0.88;91.79;100039.86;1648951;85;21231;-63
2021/01/09 00:14:52;;;;;;;132.37;57.53;;;;;;;0.92;91.83;100038.74;1649755;85;21196;-63
2021/01/09 00:17:17;;;;;;;139.22;59.77;;;;;;;0.99;91.62;100040.00;1650815;85;21240;-63
2021/01/09 00:19:43;;;;;;;132.60;58.97;;;;;;;1.01;91.74;100035.56;1646339;85;20977;-63
2021/01/09 00:22:09;;;;;;;140.50;59.10;;;;;;;1.10;91.17;100028.92;1650536;85;25868;-63
2021/01/09 00:24:36;;;;;;;141.60;61.87;;;;;;;1.29;90.63;100035.53;1650264;85;23792;-63
2021/01/09 00:27:04;;;;;;;125.43;53.73;;;;;;;1.18;90.37;100039.69;1635853;86;21543;-64
2021/01/09 00:29:29;;;;;;;142.07;63.25;;;;;;;1.06;90.56;100047.80;1651125;85;21206;-63
2021/01/09 00:31:55;;;;;;;123.17;55.00;;;;;;;0.97;90.97;100054.88;1652825;84;21067;-63
2021/01/09 00:34:21;;;;;;;132.67;57.60;;;;;;;0.78;91.56;100053.05;1655815;84;27014;-63
2021/01/09 00:36:47;;;;;;;127.13;56.37;;;;;;;0.80;91.93;100047.31;1655682;84;24250;-62
2021/01/09 00:39:14;;;;;;;118.65;52.75;;;;;;;0.87;91.86;100053.33;1655753;84;21598;-62
2021/01/09 00:41:40;;;;;;;120.67;56.65;;;;;;;0.91;91.59;100052.66;1655554;84;21212;-63
2021/01/09 00:44:07;;;;;;;124.18;56.48;;;;;;;0.88;91.67;100054.16;1656019;84;21144;-64
2021/01/09 00:46:34;;;;;;;126.02;56.58;;;;;;;0.86;91.95;100057.33;1655841;84;21182;-64
2021/01/09 00:49:00;;;;;;;119.50;52.03;;;;;;;0.90;91.91;100056.18;1655706;84;21755;-63
2021/01/09 00:51:25;;;;;;;119.17;54.73;;;;;;;0.78;92.15;100059.55;1654770;84;22542;-63
2021/01/09 00:53:51;;;;;;;140.67;60.83;;;;;;;0.78;92.18;100061.70;1655603;84;21001;-63
2021/01/09 00:56:17;;;;;;;136.37;60.20;;;;;;;0.73;92.42;100059.01;1656370;84;20958;-65
2021/01/09 00:58:43;;;;;;;139.52;63.68;;;;;;;0.82;92.45;100061.86;1657439;84;21230;-63
2021/01/09 01:01:10;;;;;;;124.38;54.85;;;;;;;0.69;92.49;100063.09;1656197;84;21223;-63
2021/01/09 01:03:37;;;;;;;127.50;57.48;;;;;;;0.74;92.46;100066.71;1656069;84;21178;-63
2021/01/09 01:06:04;;;;;;;120.70;54.53;;;;;;;0.75;92.27;100064.97;1655887;84;21199;-63
2021/01/09 01:08:29;;;;;;;131.47;57.08;;;;;;;0.77;92.32;100057.90;1656244;84;21226;-63
2021/01/09 01:10:55;;;;;;;130.97;57.90;;;;;;;0.77;92.17;100055.30;1655311;84;23901;-62
2021/01/09 01:13:22;;;;;;;119.03;52.43;;;;;;;0.70;92.41;100054.37;1655608;85;26255;-63
2021/01/09 01:15:49;;;;;;;133.43;57.53;;;;;;;0.69;92.50;100054.00;1655336;84;21410;-62
2021/01/09 01:18:15;;;;;;;144.00;62.70;;;;;;;0.63;92.62;100049.19;1656357;84;21171;-63
2021/01/09 01:20:40;;;;;;;133.33;59.53;;;;;;;0.61;92.84;100047.16;1655953;84;20975;-63
2021/01/09 01:23:06;;;;;;;130.57;58.20;;;;;;;0.60;92.81;100045.48;1657228;84;24904;-62
2021/01/09 01:25:32;;;;;;;144.03;59.63;;;;;;;0.60;93.01;100046.77;1655522;84;23343;-62
2021/01/09 01:27:57;;;;;;;128.47;54.90;;;;;;;0.62;93.13;100041.03;1652500;84;21320;-62
2021/01/09 01:30:23;;;;;;;136.33;59.33;;;;;;;0.67;92.76;100049.38;1655220;84;21626;-62
2021/01/09 01:32:49;;;;;;;139.07;60.43;;;;;;;0.62;92.85;100048.83;1655836;84;20993;-62
2021/01/09 01:35:15;;;;;;;144.20;61.00;;;;;;;0.57;93.13;100043.54;1655029;84;24878;-62
2021/01/09 01:37:43;;;;;;;140.63;61.07;;;;;;;0.57;93.43;100048.27;1654563;84;23324;-64
2021/01/09 01:40:10;;;;;;;148.53;64.85;;;;;;;0.39;93.89;100050.69;1657732;84;21286;-63
2021/01/09 01:42:36;;;;;;;;;;;;;;;0.34;94.42;100047.92;1657812;84;21185;-63
2021/01/09 01:45:03;;;;;;;134.37;57.78;;;;;;;0.49;94.36;100053.10;1654657;85;20205;-63
2021/01/09 01:47:28;;;;;;;139.62;58.95;;;;;;;0.61;93.78;100051.05;1654635;84;21238;-63
2021/01/09 01:49:54;;;;;;;136.03;58.50;;;;;;;0.63;93.36;100046.58;1654041;84;20976;-63
2021/01/09 01:52:20;;;;;;;141.30;61.17;;;;;;;0.62;93.28;100048.83;1655366;84;21371;-64
2021/01/09 01:54:46;;;;;;;139.23;61.10;;;;;;;0.55;93.54;100047.53;1654621;84;21135;-63
2021/01/09 01:57:12;;;;;;;130.50;56.73;;;;;;;0.54;93.81;100048.45;1654875;84;21660;-63
2021/01/09 01:59:41;;;;;;;132.43;55.95;;;;;;;0.49;93.73;100041.41;1654703;84;21164;-63
2021/01/09 02:02:11;;;;;;;141.97;61.68;;;;;;;0.51;93.61;100038.25;1654971;84;21199;-63
2021/01/09 02:04:37;;;;;;;138.40;60.08;;;;;;;0.46;94.29;100039.00;1653746;84;21357;-63
2021/01/09 02:07:10;;;;;;;137.57;61.97;;;;;;;0.51;93.97;100044.30;1654760;84;21036;-63
2021/01/09 02:09:40;;;;;;;125.02;53.25;;;;;;;0.54;93.92;100044.55;1653942;84;21160;-63
2021/01/09 02:12:16;;;;;;;132.87;57.45;;;;;;;0.58;93.49;100040.84;1653818;84;21191;-63
2021/01/09 02:14:45;;;;;;;134.95;59.08;;;;;;;0.65;93.55;100029.16;1655140;84;21572;-62
2021/01/09 02:17:10;;;;;;;138.25;59.75;;;;;;;0.64;93.38;100031.38;1654148;84;21234;-63
2021/01/09 02:19:42;;;;;;;141.00;62.63;;;;;;;0.49;93.75;100034.92;1654578;84;21139;-63
2021/01/09 02:22:15;;;;;;;138.85;60.58;;;;;;;0.46;94.10;100036.41;1653556;86;21728;-63
2021/01/09 02:24:43;;;;;;;142.87;61.37;;;;;;;0.27;94.79;100029.73;1655252;86;21191;-62
2021/01/09 02:27:09;;;;;;;141.65;61.70;;;;;;;0.23;95.16;100036.03;1654397;85;21597;-63
2021/01/09 02:29:38;;;;;;;146.77;62.97;;;;;;;0.30;95.20;100037.34;1653468;86;21280;-64
2021/01/09 02:32:06;;;;;;;131.55;56.48;;;;;;;0.25;95.36;100038.09;1649073;86;21208;-63
2021/01/09 02:34:45;;;;;;;127.82;54.83;;;;;;;0.31;95.24;100032.97;1648128;86;21253;-63
2021/01/09 02:37:11;;;;;;;129.72;56.30;;;;;;;0.35;94.85;100032.69;1650226;86;21433;-64
2021/01/09 02:39:37;;;;;;;138.55;59.30;;;;;;;0.31;94.84;100033.83;1628385;86;21188;-64
2021/01/09 02:42:03;;;;;;;143.63;60.87;;;;;;;0.31;94.68;100031.23;1651736;85;21589;-63
2021/01/09 02:44:28;;;;;;;140.10;59.58;;;;;;;0.38;94.58;100039.95;1650916;86;21791;-64
2021/01/09 02:46:54;;;;;;;124.70;56.10;;;;;;;0.35;94.42;100040.48;1649928;86;21154;-63
2021/01/09 02:49:20;;;;;;;134.27;58.07;;;;;;;0.37;94.27;100044.76;1650196;86;21639;-63
2021/01/09 02:51:46;;;;;;;131.53;56.67;;;;;;;0.43;94.31;100043.09;1650610;86;23302;-63
2021/01/09 02:54:11;;;;;;;131.10;55.77;;;;;;;0.43;94.03;100043.09;1650617;86;22240;-63
2021/01/09 02:56:37;;;;;;;136.23;58.03;;;;;;;0.35;94.18;100044.85;1650133;86;21020;-63
2021/01/09 02:59:03;;;;;;;123.63;53.97;;;;;;;0.38;94.30;100039.95;1651785;85;21048;-63
2021/01/09 03:01:29;;;;;;;121.00;53.07;;;;;;;0.48;93.97;100042.33;1650000;86;23352;-63
2021/01/09 03:03:55;;;;;;;135.32;56.28;;;;;;;0.44;93.89;100049.96;1650169;86;21256;-63
2021/01/09 03:06:21;;;;;;;119.90;52.98;;;;;;;0.41;93.93;100051.45;1650289;86;21274;-63
2021/01/09 03:08:47;;;;;;;138.17;60.20;;;;;;;0.43;94.01;100044.39;1650456;86;21207;-63
2021/01/09 03:11:13;;;;;;;127.23;57.73;;;;;;;0.39;94.13;100048.09;1650373;86;21013;-63
2021/01/09 03:13:38;;;;;;;136.87;58.43;;;;;;;0.48;94.22;100044.92;1650535;86;23936;-63
2021/01/09 03:16:05;;;;;;;136.20;58.60;;;;;;;0.43;93.70;100045.20;1650142;86;21333;-63
2021/01/09 03:18:31;;;;;;;128.93;54.53;;;;;;;0.50;93.64;100045.69;1650242;86;21890;-64
2021/01/09 03:20:56;;;;;;;115.73;49.23;;;;;;;0.57;93.24;100041.77;1650319;86;21464;-63
2021/01/09 03:23:22;;;;;;;128.43;56.03;;;;;;;0.53;92.88;100037.70;1650294;86;20954;-64
2021/01/09 03:25:48;;;;;;;127.60;56.03;;;;;;;0.52;93.13;100038.62;1650916;86;24841;-64
2021/01/09 03:28:14;;;;;;;131.13;56.80;;;;;;;0.55;93.03;100035.02;1650501;86;22306;-64
2021/01/09 03:30:39;;;;;;;122.37;53.53;;;;;;;0.50;93.18;100035.30;1616233;88;21247;-63
2021/01/09 03:33:05;;;;;;;129.77;58.00;;;;;;;0.48;93.28;100026.30;1606015;88;20972;-63
2021/01/09 03:35:31;;;;;;;130.13;55.23;;;;;;;0.49;93.28;100031.02;1607122;87;21757;-63
2021/01/09 03:37:56;;;;;;;116.37;51.97;;;;;;;0.46;93.35;100028.61;1607205;87;26396;-64
2021/01/09 03:40:22;;;;;;;131.37;58.10;;;;;;;0.53;93.12;100030.73;1607566;87;25185;-64
2021/01/09 03:42:48;;;;;;;129.70;57.33;;;;;;;0.42;93.34;100033.17;1607427;88;22050;-64
2021/01/09 03:45:14;;;;;;;125.27;53.10;;;;;;;0.40;93.61;100031.58;1607611;87;21460;-64
2021/01/09 03:47:39;;;;;;;122.93;52.23;;;;;;;0.47;93.34;100032.89;1607437;89;21240;-64
2021/01/09 03:50:06;;;;;;;134.40;60.50;;;;;;;0.42;93.39;100028.42;1607158;89;21061;-64
2021/01/09 03:52:32;;;;;;;135.68;59.18;;;;;;;0.42;93.62;100032.31;1607451;88;21217;-64
2021/01/09 03:54:58;;;;;;;129.90;54.27;;;;;;;0.32;94.13;100035.47;1618469;87;21616;-63
2021/01/09 03:57:23;;;;;;;114.27;50.60;;;;;;;0.25;94.19;100032.90;1650543;85;21170;-64
2021/01/09 03:59:49;;;;;;;125.67;54.97;;;;;;;0.30;94.22;100032.14;1650632;86;20981;-64
2021/01/09 04:02:15;;;;;;;140.70;57.67;;;;;;;0.23;94.35;100037.33;1650182;86;23952;-64
2021/01/09 04:04:41;;;;;;;132.57;58.02;;;;;;;0.17;94.60;100036.40;1650176;86;21171;-64
2021/01/09 04:07:07;;;;;;;125.47;55.00;;;;;;;0.10;95.14;100026.03;1650295;86;21270;-64
2021/01/09 04:09:33;;;;;;;131.37;57.70;;;;;;;0.17;95.04;100041.59;1650424;86;20969;-63
2021/01/09 04:11:59;;;;;;;118.47;51.67;;;;;;;0.16;95.26;100041.24;1643321;86;21080;-64
2021/01/09 04:14:24;;;;;;;132.87;56.87;;;;;;;0.17;94.96;100045.48;1650486;86;22852;-63
2021/01/09 04:16:50;;;;;;;120.00;53.23;;;;;;;0.21;94.83;100048.28;1649591;86;20966;-64
2021/01/09 04:19:16;;;;;;;128.47;53.63;;;;;;;0.19;94.82;100047.55;1650421;86;21105;-64
2021/01/09 04:21:53;;;;;;;128.33;55.67;;;;;;;0.14;95.15;100049.56;1649836;86;20918;-65
2021/01/09 04:24:22;;;;;;;120.22;50.00;;;;;;;0.23;94.85;100049.02;1649865;86;21191;-64
2021/01/09 04:26:59;;;;;;;131.95;56.28;;;;;;;0.22;94.79;100056.45;1650473;85;21275;-64
2021/01/09 04:29:25;;;;;;;138.60;55.67;;;;;;;0.05;95.21;100057.90;1651148;86;21599;-63
2021/01/09 04:31:51;;;;;;;134.45;57.45;;;;;;;0.11;94.94;100051.05;1650286;86;22249;-63
2021/01/09 04:34:17;;;;;;;141.60;60.17;;;;;;;0.29;95.01;100049.94;1655916;86;21958;-63
2021/01/09 04:36:43;;;;;;;134.40;58.10;;;;;;;0.36;94.40;100049.12;1658458;85;21214;-63
2021/01/09 04:39:09;;;;;;;124.57;54.07;;;;;;;0.28;94.39;100048.30;1658303;86;22983;-63
2021/01/09 04:41:36;;;;;;;130.25;53.92;;;;;;;0.25;94.41;100052.38;1660430;84;21231;-63
2021/01/09 04:44:05;;;;;;;128.05;54.15;;;;;;;0.11;94.84;100061.44;1658303;86;21606;-63
2021/01/09 04:46:51;;;;;;;119.53;52.00;;;;;;;0.09;94.92;100062.00;1658544;86;21242;-63
2021/01/09 04:49:19;;;;;;;124.15;52.48;;;;;;;0.22;94.75;100064.25;1657273;86;21219;-62
2021/01/09 04:51:45;;;;;;;130.93;57.33;;;;;;;0.15;94.89;100066.35;1658308;85;21210;-63
2021/01/09 04:54:14;;;;;;;126.90;54.93;;;;;;;0.06;95.31;100069.50;1658491;86;21437;-63
2021/01/09 04:56:42;;;;;;;117.28;50.78;;;;;;;0.04;95.33;100061.45;1661339;85;21211;-64
2021/01/09 04:59:08;;;;;;;136.22;56.13;;;;;;;0.08;95.34;100065.51;1661154;84;21184;-63
2021/01/09 05:01:35;;;;;;;124.13;55.03;;;;;;;-0.04;95.66;100070.98;1658684;84;21119;-64
2021/01/09 05:04:00;;;;;;;131.80;57.23;;;;;;;0.02;95.76;100075.81;1659786;85;21164;-63
2021/01/09 05:06:26;;;;;;;125.30;53.10;;;;;;;-0.01;95.88;100072.92;1658422;86;21353;-63
2021/01/09 05:08:52;;;;;;;124.40;54.20;;;;;;;0.09;95.62;100077.10;1658666;86;21189;-63
2021/01/09 05:11:18;;;;;;;131.47;55.23;;;;;;;0.13;95.20;100082.50;1658852;85;20993;-63
2021/01/09 05:13:45;;;;;;;135.30;56.48;;;;;;;0.03;95.11;100068.85;1658556;86;21208;-63
2021/01/09 05:16:12;;;;;;;142.30;58.78;;;;;;;0.03;95.11;100068.85;1641611;85;21175;-63
2021/01/09 05:18:38;;;;;;;126.55;55.28;;;;;;;0.08;95.41;100084.98;1658806;86;21151;-62
2021/01/09 05:21:05;;;;;;;128.30;55.87;;;;;;;0.04;95.58;100086.11;1658802;86;21783;-63
2021/01/09 05:23:49;;;;;;;125.67;54.83;;;;;;;-0.05;95.96;100088.33;1657087;86;21620;-63
2021/01/09 05:25:59;;;;;;;;;;;;;;;-0.01;96.03;100083.31;1657995;86;21211;-63
2021/01/09 05:28:24;;;;;;;138.37;55.85;;;;;;;0.01;95.86;100083.22;1658480;85;20753;-63
2021/01/09 05:30:50;;;;;;;118.87;51.13;;;;;;;0.02;96.05;100086.64;1619600;84;21014;-62
2021/01/09 05:33:16;;;;;;;137.80;55.80;;;;;;;0.07;95.83;100088.05;1654345;86;21052;-63
2021/01/09 05:35:41;;;;;;;131.77;55.57;;;;;;;0.09;95.83;100086.66;1651644;85;21177;-63
2021/01/09 05:38:07;;;;;;;123.30;53.90;;;;;;;0.12;95.52;100098.16;1650554;86;21652;-63
2021/01/09 05:40:39;;;;;;;136.73;58.70;;;;;;;0.16;95.24;100094.00;1651066;85;22012;-64
2021/01/09 05:43:09;;;;;;;128.70;55.38;;;;;;;0.08;95.45;100094.92;1650650;86;21220;-63
2021/01/09 05:45:38;;;;;;;135.85;59.67;;;;;;;0.11;95.43;100096.48;1652386;85;21239;-63
2021/01/09 05:48:05;;;;;;;128.05;55.55;;;;;;;0.06;95.34;100088.14;1649411;86;21544;-64
2021/01/09 05:50:31;;;;;;;131.05;55.60;;;;;;;0.06;95.67;100098.53;1584091;86;21223;-63
2021/01/09 05:52:57;;;;;;;138.93;58.47;;;;;;;0.10;95.58;100102.63;1651066;86;24855;-64
2021/01/09 05:55:23;;;;;;;129.70;55.73;;;;;;;0.20;95.65;100101.13;1649819;86;21473;-64
2021/01/09 05:57:49;;;;;;;134.93;57.97;;;;;;;0.28;95.16;100101.53;1651756;85;21940;-63
2021/01/09 06:00:16;;;;;;;132.37;59.35;;;;;;;0.27;94.87;100105.05;1650774;86;21203;-64
2021/01/09 06:03:10;;;;;;;132.72;55.75;;;;;;;0.20;94.66;100104.20;1604766;86;21210;-63
2021/01/09 06:05:51;;;;;;;128.68;57.30;;;;;;;0.32;94.61;100109.97;1650857;86;21243;-63
2021/01/09 06:08:19;;;;;;;120.95;52.38;;;;;;;0.28;94.75;100110.63;1654156;85;21207;-65
2021/01/09 06:10:46;;;;;;;125.47;52.70;;;;;;;0.31;94.46;100113.48;1653700;85;21352;-64
2021/01/09 06:13:13;;;;;;;116.12;52.73;;;;;;;0.33;94.33;100116.38;1651045;85;21741;-64
2021/01/09 06:15:41;;;;;;;113.70;48.52;;;;;;;0.28;94.36;100114.52;1649982;85;21208;-65
2021/01/09 06:18:06;;;;;;;133.43;58.83;;;;;;;0.38;94.17;100123.06;1645637;86;21615;-64
2021/01/09 06:20:32;;;;;;;122.87;51.90;;;;;;;0.28;94.62;100117.12;1648607;86;21764;-64
2021/01/09 06:22:58;;;;;;;128.63;56.00;;;;;;;0.24;94.58;100116.92;1651683;86;22527;-64
2021/01/09 06:25:24;;;;;;;124.27;56.60;;;;;;;0.24;94.66;100123.41;1650680;86;21425;-67
2021/01/09 06:27:53;;;;;;;139.57;60.20;;;;;;;0.23;94.71;100120.43;1649887;86;21227;-65
2021/01/09 06:30:20;;;;;;;130.57;55.23;;;;;;;0.21;94.63;100127.48;1627532;86;21152;-65
2021/01/09 06:32:50;;;;;;;;;;;;;;;0.26;94.86;100122.84;1653106;86;21598;-65
2021/01/09 06:35:15;;;;;;;121.92;52.50;;;;;;;0.22;95.01;100126.57;1648656;86;21190;-65
2021/01/09 06:37:42;;;;;;;122.07;53.17;;;;;;;0.18;95.07;100137.58;1650456;86;21611;-65
2021/01/09 06:40:09;;;;;;;134.35;57.98;;;;;;;0.16;95.22;100133.42;1653721;85;21216;-65
2021/01/09 06:42:37;;;;;;;128.23;55.92;;;;;;;0.07;95.65;100137.86;1625680;86;21235;-65
2021/01/09 06:45:03;;;;;;;;;;;;;;;0.16;95.90;100133.42;1629512;86;21219;-65
2021/01/09 06:47:30;;;;;;;121.55;50.67;;;;;;;0.07;95.79;100143.05;1650346;86;20541;-65
2021/01/09 06:50:19;;;;;;;144.70;57.03;;;;;;;0.07;95.79;100143.05;1650727;86;21175;-65
2021/01/09 06:52:59;;;;;;;137.82;54.42;;;;;;;0.03;96.16;100142.84;1651779;85;21649;-65
2021/01/09 06:55:43;;;;;;;133.80;56.28;;;;;;;0.06;96.36;100147.85;1650906;85;21215;-65
2021/01/09 06:58:15;;;;;;;127.75;53.05;;;;;;;0.12;96.30;100150.09;1653710;85;21192;-65
2021/01/09 07:00:41;;;;;;;133.93;58.30;;;;;;;0.07;96.34;100152.13;1650237;86;21534;-65
2021/01/09 07:03:15;;;;;;;145.67;60.03;;;;;;;0.18;96.22;100149.73;1652112;85;20941;-64
2021/01/09 07:05:44;;;;;;;149.23;60.58;;;;;;;0.17;96.21;100163.64;1651234;86;21187;-64
2021/01/09 07:08:10;;;;;;;148.40;60.63;;;;;;;0.13;96.41;100153.90;1650608;86;21151;-64
2021/01/09 07:10:54;;;;;;;142.95;58.25;;;;;;;0.13;96.48;100153.08;1626190;86;21211;-64
2021/01/09 07:13:21;;;;;;;148.32;57.35;;;;;;;0.03;96.60;100140.24;1649355;85;21562;-64
2021/01/09 07:15:47;;;;;;;154.93;60.92;;;;;;;0.03;96.60;100140.24;1625523;86;21212;-64
2021/01/09 07:18:13;;;;;;;139.75;60.28;;;;;;;0.21;96.63;100155.23;1626549;86;21183;-65
2021/01/09 07:20:45;;;;;;;150.60;62.23;;;;;;;0.33;96.18;100155.34;1651380;86;24894;-64
2021/01/09 07:23:13;;;;;;;157.82;64.80;;;;;;;0.32;95.92;100162.74;1650966;86;21590;-65
2021/01/09 07:25:41;;;;;;;152.72;63.13;;;;;;;0.32;96.01;100165.34;1625247;86;21604;-64
2021/01/09 07:28:18;;;;;;;;;;;;;;;0.27;95.99;100169.98;1653970;85;21248;-63
2021/01/09 07:30:44;;;;;;;147.22;57.03;;;;;;;0.29;96.21;100166.81;1627435;86;20230;-64
2021/01/09 07:33:12;;;;;;;146.53;58.92;;;;;;;0.19;96.44;100172.20;1650511;85;21162;-65
2021/01/09 07:35:43;;;;;;;158.30;64.75;;;;;;;0.21;96.66;100176.83;1658213;86;21159;-65
2021/01/09 07:38:09;;;;;;;149.87;60.83;;;;;;;0.18;96.89;100173.94;1657550;86;22816;-64
2021/01/09 07:40:56;;;;;;;148.13;61.60;;;;;;;0.24;96.54;100183.14;1659876;84;20949;-64
2021/01/09 07:43:38;;;;;;;;;;;;;;;0.26;96.56;100176.09;1660631;85;21143;-64
2021/01/09 07:46:30;;;;;;;144.00;56.65;;;;;;;0.38;96.13;100181.52;1658220;86;20538;-64
2021/01/09 07:49:00;;;;;;;140.97;57.98;;;;;;;0.38;96.11;100184.11;1658232;86;21270;-65
2021/01/09 07:51:50;;;;;;;135.10;54.60;;;;;;;0.37;96.00;100182.42;1658066;84;21577;-64
2021/01/09 07:54:40;;;;;;;159.27;68.52;;;;;;;0.38;96.02;100184.94;1657613;86;21057;-64
2021/01/09 07:57:22;;;;;;;154.75;64.05;;;;;;;0.33;96.09;100189.58;1656859;86;21147;-65
2021/01/09 08:00:01;;;;;;;156.65;61.70;;;;;;;0.36;96.47;100184.20;1659128;84;21192;-64
2021/01/09 08:02:32;;;;;;;146.87;60.00;;;;;;;0.29;96.32;100189.37;1657635;84;21253;-66
2021/01/09 08:05:08;;;;;;;154.07;61.13;;;;;;;0.24;96.64;100190.94;1658416;86;21908;-66
2021/01/09 08:07:36;;;;;;;151.80;63.48;;;;;;;0.33;96.61;100186.50;1658512;86;21202;-66
2021/01/09 08:10:21;;;;;;;153.05;65.28;;;;;;;0.44;96.28;100188.95;1658309;86;21230;-64
2021/01/09 08:12:57;;;;;;;141.35;55.80;;;;;;;0.41;96.09;100183.93;1658256;86;21215;-66
2021/01/09 08:15:24;;;;;;;157.12;63.87;;;;;;;0.38;96.18;100186.70;1658293;86;21225;-66
2021/01/09 08:17:50;;;;;;;146.53;59.05;;;;;;;0.40;96.13;100182.25;1658563;86;21222;-65
2021/01/09 08:20:18;;;;;;;133.27;57.03;;;;;;;0.41;96.19;100182.63;1658045;86;21001;-66
2021/01/09 08:22:58;;;;;;;141.97;56.75;;;;;;;0.51;95.88;100187.64;1658250;86;21215;-64
2021/01/09 08:25:30;;;;;;;154.18;64.25;;;;;;;0.33;96.15;100186.97;1658530;85;21552;-65
2021/01/09 08:28:00;;;;;;;142.45;58.50;;;;;;;0.40;96.31;100192.16;1658376;85;21239;-65
2021/01/09 08:30:33;;;;;;;153.00;60.98;;;;;;;0.53;95.96;100191.00;1658478;86;21239;-64
2021/01/09 08:33:10;;;;;;;157.03;64.17;;;;;;;0.35;96.10;100199.40;1658294;86;21237;-65
2021/01/09 08:35:39;;;;;;;160.82;65.37;;;;;;;0.44;96.08;100198.03;1655658;86;21136;-64
2021/01/09 08:38:05;;;;;;;145.80;60.10;;;;;;;0.47;96.28;100199.16;1655093;86;21243;-66
2021/01/09 08:40:31;;;;;;;138.90;58.13;;;;;;;0.48;95.97;100204.70;1656993;84;21776;-65
2021/01/09 08:43:03;;;;;;;137.40;56.40;;;;;;;0.43;96.11;100205.45;1655953;86;21552;-66
2021/01/09 08:45:46;;;;;;;157.90;62.15;;;;;;;0.44;96.21;100206.66;1655334;86;22618;-68
2021/01/09 08:48:16;;;;;;;155.22;61.83;;;;;;;0.34;96.42;100206.37;1655640;84;21227;-67
2021/01/09 08:50:57;;;;;;;150.27;62.08;;;;;;;0.35;96.89;100208.49;1652921;86;21199;-66
2021/01/09 08:53:23;;;;;;;160.32;64.40;;;;;;;0.28;96.73;100196.33;1655355;85;21263;-66
2021/01/09 08:55:51;;;;;;;140.28;56.98;;;;;;;0.39;96.70;100213.03;1656068;86;21156;-66
2021/01/09 08:58:17;;;;;;;124.42;52.73;;;;;;;0.45;96.48;100221.77;1655685;84;21216;-66
2021/01/09 09:00:43;;;;;;;154.03;61.17;;;;;;;0.43;96.55;100218.44;1655946;86;20925;-66
2021/01/09 09:03:11;;;;;;;141.17;60.30;;;;;;;0.44;96.69;100217.52;1657925;84;22932;-65
2021/01/09 09:05:39;;;;;;;145.90;58.20;;;;;;;0.48;96.48;100213.80;1655422;86;21629;-65
2021/01/09 09:08:08;;;;;;;158.55;65.83;;;;;;;0.44;96.72;100213.63;1655520;86;21647;-65
2021/01/09 09:10:34;;;;;;;154.20;62.95;;;;;;;0.40;97.01;100210.82;1655197;86;21263;-65
2021/01/09 09:13:20;;;;;;;134.55;55.05;;;;;;;0.42;97.24;100215.02;1607255;86;21167;-67
2021/01/09 09:15:47;;;;;;;143.93;58.63;;;;;;;0.47;96.84;100222.54;1654570;86;21194;-66
2021/01/09 09:18:13;;;;;;;130.37;51.53;;;;;;;0.46;96.88;100211.29;1655745;86;21207;-66
2021/01/09 09:20:41;;;;;;;121.07;50.37;;;;;;;0.57;96.52;100213.27;1655533;85;22850;-66
2021/01/09 09:23:23;;;;;;;125.05;54.85;;;;;;;0.59;96.46;100211.42;1655808;86;21673;-66
2021/01/09 09:26:12;;;;;;;134.82;56.00;;;;;;;0.67;96.30;100216.17;1655120;85;21136;-66
2021/01/09 09:28:50;;;;;;;134.15;55.03;;;;;;;0.59;96.34;100211.88;1573484;88;21661;-67
2021/01/09 09:31:25;;;;;;;123.13;49.63;;;;;;;0.71;96.20;100210.70;1576990;89;21646;-67
2021/01/09 09:34:07;;;;;;;125.60;51.63;;;;;;;0.73;96.16;100214.95;1613864;85;22412;-67
2021/01/09 09:36:39;;;;;;;128.32;52.45;;;;;;;0.71;96.08;100222.39;1651204;86;21054;-69
2021/01/09 09:39:15;;;;;;;125.58;53.52;;;;;;;0.69;96.31;100206.52;1651850;85;21255;-66
2021/01/09 09:42:01;;;;;;;135.73;55.83;;;;;;;0.75;95.99;100208.75;1652829;85;21642;-66
2021/01/09 09:44:45;;;;;;;122.20;51.48;;;;;;;0.80;96.01;100212.37;1650762;86;21674;-66
2021/01/09 09:47:27;;;;;;;118.10;49.20;;;;;;;0.85;95.83;100207.72;1653337;85;21135;-66
2021/01/09 09:49:52;;;;;;;148.22;59.25;;;;;;;0.78;95.79;100204.66;1649634;86;21574;-66
2021/01/09 09:52:20;;;;;;;123.63;49.77;;;;;;;0.63;96.25;100203.80;1651807;86;21600;-66
2021/01/09 09:54:45;;;;;;;111.65;46.45;;;;;;;0.70;96.09;100211.62;1651274;86;26688;-67
2021/01/09 09:57:22;;;;;;;122.83;49.97;;;;;;;0.69;96.10;100196.11;1651214;85;24285;-67
2021/01/09 10:00:12;;;;;;;134.57;53.17;;;;;;;0.60;96.54;100207.88;1652960;85;21183;-66
2021/01/09 10:02:39;;;;;;;120.55;50.52;;;;;;;0.59;96.56;100204.93;1651206;85;21760;-67
2021/01/09 10:05:13;;;;;;;137.28;52.95;;;;;;;0.67;96.46;100196.20;1651135;86;21211;-65
2021/01/09 10:07:38;;;;;;;121.80;48.05;;;;;;;0.65;96.45;100205.02;1651408;85;21193;-67
2021/01/09 10:10:15;;;;;;;133.53;53.70;;;;;;;0.54;96.90;100200.45;1651732;86;22247;-66
2021/01/09 10:12:41;;;;;;;137.73;48.20;;;;;;;0.55;97.16;100205.20;1651719;85;21581;-65
2021/01/09 10:15:09;;;;;;;154.70;56.87;;;;;;;0.46;97.39;100192.28;1651597;86;21730;-67
2021/01/09 10:17:34;;;;;;;155.60;56.40;;;;;;;0.49;97.57;100208.52;1651654;85;21172;-67
2021/01/09 10:20:00;;;;;;;156.33;57.83;;;;;;;0.51;97.40;100198.03;1651918;86;25872;-67
2021/01/09 10:22:26;;;;;;;154.60;57.63;;;;;;;0.49;97.32;100218.08;1655773;85;21341;-67
2021/01/09 10:24:52;;;;;;;146.13;53.10;;;;;;;0.46;97.58;100205.27;1651378;85;21457;-67
2021/01/09 10:27:17;;;;;;;161.87;57.53;;;;;;;0.38;97.60;100210.09;1651963;86;22581;-66
2021/01/09 10:29:43;;;;;;;176.07;61.03;;;;;;;0.31;98.05;100220.83;1651830;86;21660;-68
2021/01/09 10:32:09;;;;;;;170.70;58.53;;;;;;;0.28;98.47;100205.42;1651335;86;26336;-66
2021/01/09 10:34:34;;;;;;;178.00;60.47;;;;;;;0.34;98.08;100212.00;1652271;84;23275;-66
2021/01/09 10:37:00;;;;;;;155.53;55.37;;;;;;;0.41;98.07;100198.22;1649119;86;21192;-67
2021/01/09 10:39:26;;;;;;;159.87;58.07;;;;;;;0.51;97.64;100203.23;1651647;85;21140;-67
2021/01/09 10:41:55;;;;;;;176.60;61.13;;;;;;;0.51;97.70;100204.52;1652082;85;21631;-68
2021/01/09 10:44:21;;;;;;;164.13;57.93;;;;;;;0.57;97.50;100211.14;1652036;86;21232;-67
2021/01/09 10:46:46;;;;;;;144.40;51.33;;;;;;;0.57;97.10;100205.47;1651101;86;23329;-67
2021/01/09 10:49:12;;;;;;;166.83;58.40;;;;;;;0.61;96.63;100196.57;1651526;86;21431;-66
2021/01/09 10:51:38;;;;;;;163.57;56.37;;;;;;;0.57;96.75;100198.97;1651202;86;21098;-66
2021/01/09 10:54:04;;;;;;;172.07;61.70;;;;;;;0.66;96.62;100195.00;1649467;86;21021;-67
2021/01/09 10:56:29;;;;;;;163.33;57.67;;;;;;;0.62;96.46;100198.25;1651328;86;24872;-69
2021/01/09 10:58:55;;;;;;;152.90;53.77;;;;;;;0.66;96.66;100190.63;1651512;85;24226;-68
2021/01/09 11:01:21;;;;;;;154.20;53.77;;;;;;;0.71;96.29;100197.70;1651354;85;21385;-67
2021/01/09 11:03:47;;;;;;;187.90;63.70;;;;;;;0.68;95.99;100202.23;1652011;85;21251;-64
2021/01/09 11:06:21;;;;;;;164.23;58.27;;;;;;;0.52;96.32;100199.72;1653376;85;20927;-66
2021/01/09 11:08:47;;;;;;;147.25;53.95;;;;;;;0.62;96.05;100198.25;1657551;85;21597;-66
2021/01/09 11:11:13;;;;;;;162.13;57.63;;;;;;;0.64;95.65;100198.16;1637936;86;22516;-67
2021/01/09 11:13:38;;;;;;;157.07;55.60;;;;;;;0.66;95.50;100195.83;1651692;86;21592;-66
2021/01/09 11:16:05;;;;;;;152.50;54.30;;;;;;;0.66;95.43;100195.83;1650913;86;21021;-66
2021/01/09 11:18:31;;;;;;;154.95;54.67;;;;;;;0.61;95.43;100205.66;1650915;86;21239;-66